sensor_id;sensor_type;location;lat;lon;timestamp;temperature;humidity
51837;DHT22;38941;53.254;6.600;2023-09-07T00:01:59;22.00;99.90
51837;DHT22;38941;53.254;6.600;2023-09-07T00:04:00;22.00;99.90
51837;DHT22;38941;53.254;6.600;2023-09-07T00:06:01;21.80;99.90
51837;DHT22;38941;53.254;6.600;2023-09-07T00:08:01;21.90;99.90
51837;DHT22;38941;53.254;6.600;2023-09-07T00:10:03;21.90;99.90
51837;DHT22;38941;53.254;6.600;2023-09-07T00:12:04;21.90;99.90
51837;DHT22;38941;53.254;6.600;2023-09-07T00:14:05;21.90;99.90
51837;DHT22;38941;53.254;6.600;2023-09-07T00:16:06;21.80;99.90
51837;DHT22;38941;53.254;6.600;2023-09-07T00:18:08;21.50;99.90
51837;DHT22;38941;53.254;6.600;2023-09-07T00:20:09;21.80;99.90
51837;DHT22;38941;53.254;6.600;2023-09-07T00:22:11;21.70;99.90
51837;DHT22;38941;53.254;6.600;2023-09-07T00:24:12;22.10;99.90
51837;DHT22;38941;53.254;6.600;2023-09-07T00:26:12;21.70;99.90
51837;DHT22;38941;53.254;6.600;2023-09-07T00:28:13;21.70;99.90
51837;DHT22;38941;53.254;6.600;2023-09-07T00:30:14;21.60;99.90
51837;DHT22;38941;53.254;6.600;2023-09-07T00:32:15;21.60;99.90
51837;DHT22;38941;53.254;6.600;2023-09-07T00:34:16;21.50;99.90
51837;DHT22;38941;53.254;6.600;2023-09-07T00:36:16;21.50;99.90
51837;DHT22;38941;53.254;6.600;2023-09-07T00:38:18;21.50;99.90
51837;DHT22;38941;53.254;6.600;2023-09-07T00:40:19;21.40;99.90
51837;DHT22;38941;53.254;6.600;2023-09-07T00:42:20;21.40;99.90
51837;DHT22;38941;53.254;6.600;2023-09-07T00:44:21;21.30;99.90
51837;DHT22;38941;53.254;6.600;2023-09-07T00:46:22;21.20;99.90
51837;DHT22;38941;53.254;6.600;2023-09-07T00:48:23;21.20;99.90
51837;DHT22;38941;53.254;6.600;2023-09-07T00:50:24;21.20;99.90
51837;DHT22;38941;53.254;6.600;2023-09-07T00:52:25;21.10;99.90
51837;DHT22;38941;53.254;6.600;2023-09-07T00:54:25;21.10;99.90
51837;DHT22;38941;53.254;6.600;2023-09-07T00:56:26;21.00;99.90
51837;DHT22;38941;53.254;6.600;2023-09-07T00:58:27;21.00;99.90
51837;DHT22;38941;53.254;6.600;2023-09-07T01:00:28;20.90;99.90
51837;DHT22;38941;53.254;6.600;2023-09-07T01:02:29;20.90;99.90
51837;DHT22;38941;53.254;6.600;2023-09-07T01:04:31;20.90;99.90
51837;DHT22;38941;53.254;6.600;2023-09-07T01:06:52;20.90;99.90
51837;DHT22;38941;53.254;6.600;2023-09-07T01:08:58;20.80;99.90
51837;DHT22;38941;53.254;6.600;2023-09-07T01:11:00;20.80;99.90
51837;DHT22;38941;53.254;6.600;2023-09-07T01:13:01;20.70;99.90
51837;DHT22;38941;53.254;6.600;2023-09-07T01:15:02;20.70;99.90
51837;DHT22;38941;53.254;6.600;2023-09-07T01:17:05;20.60;99.90
51837;DHT22;38941;53.254;6.600;2023-09-07T01:19:07;20.70;99.90
51837;DHT22;38941;53.254;6.600;2023-09-07T01:21:11;20.60;99.90
51837;DHT22;38941;53.254;6.600;2023-09-07T01:23:12;20.60;99.90
51837;DHT22;38941;53.254;6.600;2023-09-07T01:25:14;20.60;99.90
51837;DHT22;38941;53.254;6.600;2023-09-07T01:27:14;20.50;99.90
51837;DHT22;38941;53.254;6.600;2023-09-07T01:29:16;20.50;99.90
51837;DHT22;38941;53.254;6.600;2023-09-07T01:31:17;20.40;99.90
51837;DHT22;38941;53.254;6.600;2023-09-07T01:33:18;20.40;99.90
51837;DHT22;38941;53.254;6.600;2023-09-07T01:35:19;20.40;99.90
51837;DHT22;38941;53.254;6.600;2023-09-07T01:37:23;20.40;99.90
51837;DHT22;38941;53.254;6.600;2023-09-07T01:39:24;20.40;99.90
51837;DHT22;38941;53.254;6.600;2023-09-07T01:41:25;20.30;99.90
51837;DHT22;38941;53.254;6.600;2023-09-07T01:43:26;20.30;99.90
51837;DHT22;38941;53.254;6.600;2023-09-07T01:45:33;20.30;99.90
51837;DHT22;38941;53.254;6.600;2023-09-07T01:47:33;20.20;99.90
51837;DHT22;38941;53.254;6.600;2023-09-07T01:49:34;20.20;99.90
51837;DHT22;38941;53.254;6.600;2023-09-07T01:51:35;20.10;99.90
51837;DHT22;38941;53.254;6.600;2023-09-07T01:53:36;20.00;99.90
51837;DHT22;38941;53.254;6.600;2023-09-07T01:55:36;19.90;99.90
51837;DHT22;38941;53.254;6.600;2023-09-07T01:57:37;19.90;99.90
51837;DHT22;38941;53.254;6.600;2023-09-07T01:59:38;19.80;99.90
51837;DHT22;38941;53.254;6.600;2023-09-07T02:01:39;19.80;99.90
51837;DHT22;38941;53.254;6.600;2023-09-07T02:03:40;19.80;99.90
51837;DHT22;38941;53.254;6.600;2023-09-07T02:05:41;19.70;99.90
51837;DHT22;38941;53.254;6.600;2023-09-07T02:07:44;19.70;99.90
51837;DHT22;38941;53.254;6.600;2023-09-07T02:09:45;19.60;99.90
51837;DHT22;38941;53.254;6.600;2023-09-07T02:11:45;19.60;99.90
51837;DHT22;38941;53.254;6.600;2023-09-07T02:13:47;19.60;99.90
51837;DHT22;38941;53.254;6.600;2023-09-07T02:15:48;19.50;99.90
51837;DHT22;38941;53.254;6.600;2023-09-07T02:17:49;19.50;99.90
51837;DHT22;38941;53.254;6.600;2023-09-07T02:19:49;19.50;99.90
51837;DHT22;38941;53.254;6.600;2023-09-07T02:21:50;19.40;99.90
51837;DHT22;38941;53.254;6.600;2023-09-07T02:23:53;19.40;99.90
51837;DHT22;38941;53.254;6.600;2023-09-07T02:25:54;19.30;99.90
51837;DHT22;38941;53.254;6.600;2023-09-07T02:27:55;19.20;99.90
51837;DHT22;38941;53.254;6.600;2023-09-07T02:29:56;19.20;99.90
51837;DHT22;38941;53.254;6.600;2023-09-07T02:31:57;19.10;99.90
51837;DHT22;38941;53.254;6.600;2023-09-07T02:33:58;19.10;99.90
51837;DHT22;38941;53.254;6.600;2023-09-07T02:35:59;19.00;99.90
51837;DHT22;38941;53.254;6.600;2023-09-07T02:37:59;19.00;99.90
51837;DHT22;38941;53.254;6.600;2023-09-07T02:40:01;18.90;99.90
51837;DHT22;38941;53.254;6.600;2023-09-07T02:42:01;18.90;99.90
51837;DHT22;38941;53.254;6.600;2023-09-07T02:44:02;18.90;99.90
51837;DHT22;38941;53.254;6.600;2023-09-07T02:46:03;18.80;99.90
51837;DHT22;38941;53.254;6.600;2023-09-07T02:48:05;18.80;99.90
51837;DHT22;38941;53.254;6.600;2023-09-07T02:50:06;18.80;99.90
51837;DHT22;38941;53.254;6.600;2023-09-07T02:52:07;18.80;99.90
51837;DHT22;38941;53.254;6.600;2023-09-07T02:54:08;18.80;99.90
51837;DHT22;38941;53.254;6.600;2023-09-07T02:56:09;18.70;99.90
51837;DHT22;38941;53.254;6.600;2023-09-07T02:58:11;18.70;99.90
51837;DHT22;38941;53.254;6.600;2023-09-07T03:00:12;18.70;99.90
51837;DHT22;38941;53.254;6.600;2023-09-07T03:02:13;18.70;99.90
51837;DHT22;38941;53.254;6.600;2023-09-07T03:04:13;18.70;99.90
51837;DHT22;38941;53.254;6.600;2023-09-07T03:06:15;18.70;99.90
51837;DHT22;38941;53.254;6.600;2023-09-07T03:08:19;18.70;99.90
51837;DHT22;38941;53.254;6.600;2023-09-07T03:10:19;18.60;99.90
51837;DHT22;38941;53.254;6.600;2023-09-07T03:12:21;18.60;99.90
51837;DHT22;38941;53.254;6.600;2023-09-07T03:14:22;18.60;99.90
51837;DHT22;38941;53.254;6.600;2023-09-07T03:16:23;18.50;99.90
51837;DHT22;38941;53.254;6.600;2023-09-07T03:18:23;18.50;99.90
51837;DHT22;38941;53.254;6.600;2023-09-07T03:20:24;18.50;99.90
51837;DHT22;38941;53.254;6.600;2023-09-07T03:22:25;18.40;99.90
51837;DHT22;38941;53.254;6.600;2023-09-07T03:24:27;18.40;99.90
51837;DHT22;38941;53.254;6.600;2023-09-07T03:26:28;18.40;99.90
51837;DHT22;38941;53.254;6.600;2023-09-07T03:28:29;18.40;99.90
51837;DHT22;38941;53.254;6.600;2023-09-07T03:30:30;18.30;99.90
51837;DHT22;38941;53.254;6.600;2023-09-07T03:32:31;18.30;99.90
51837;DHT22;38941;53.254;6.600;2023-09-07T03:34:33;18.30;99.90
51837;DHT22;38941;53.254;6.600;2023-09-07T03:36:34;18.20;99.90
51837;DHT22;38941;53.254;6.600;2023-09-07T03:38:35;18.20;99.90
51837;DHT22;38941;53.254;6.600;2023-09-07T03:40:35;17.30;99.90
51837;DHT22;38941;53.254;6.600;2023-09-07T03:42:36;18.20;99.90
51837;DHT22;38941;53.254;6.600;2023-09-07T03:44:37;18.20;99.90
51837;DHT22;38941;53.254;6.600;2023-09-07T03:46:40;18.20;99.90
51837;DHT22;38941;53.254;6.600;2023-09-07T03:48:40;18.20;99.90
51837;DHT22;38941;53.254;6.600;2023-09-07T03:50:41;18.20;99.90
51837;DHT22;38941;53.254;6.600;2023-09-07T03:52:42;18.10;99.90
51837;DHT22;38941;53.254;6.600;2023-09-07T03:54:43;18.10;99.90
51837;DHT22;38941;53.254;6.600;2023-09-07T03:56:43;18.10;99.90
51837;DHT22;38941;53.254;6.600;2023-09-07T03:58:44;18.10;99.90
51837;DHT22;38941;53.254;6.600;2023-09-07T04:00:47;18.10;99.90
51837;DHT22;38941;53.254;6.600;2023-09-07T04:02:48;18.10;99.90
51837;DHT22;38941;53.254;6.600;2023-09-07T04:04:50;18.00;99.90
51837;DHT22;38941;53.254;6.600;2023-09-07T04:06:51;18.00;99.90
51837;DHT22;38941;53.254;6.600;2023-09-07T04:08:52;18.00;99.90
51837;DHT22;38941;53.254;6.600;2023-09-07T04:10:52;18.00;99.90
51837;DHT22;38941;53.254;6.600;2023-09-07T04:12:53;17.90;99.90
51837;DHT22;38941;53.254;6.600;2023-09-07T04:14:54;17.90;99.90
51837;DHT22;38941;53.254;6.600;2023-09-07T04:16:55;17.90;99.90
51837;DHT22;38941;53.254;6.600;2023-09-07T04:18:55;17.80;99.90
51837;DHT22;38941;53.254;6.600;2023-09-07T04:21:08;17.80;99.90
51837;DHT22;38941;53.254;6.600;2023-09-07T04:23:09;17.80;99.90
51837;DHT22;38941;53.254;6.600;2023-09-07T04:25:11;17.80;99.90
51837;DHT22;38941;53.254;6.600;2023-09-07T04:27:11;17.80;99.90
51837;DHT22;38941;53.254;6.600;2023-09-07T04:29:12;17.80;99.90
51837;DHT22;38941;53.254;6.600;2023-09-07T04:31:13;17.70;99.90
51837;DHT22;38941;53.254;6.600;2023-09-07T04:33:14;17.70;99.90
51837;DHT22;38941;53.254;6.600;2023-09-07T04:35:15;17.70;99.90
51837;DHT22;38941;53.254;6.600;2023-09-07T04:37:15;17.70;99.90
51837;DHT22;38941;53.254;6.600;2023-09-07T04:39:16;17.60;99.90
51837;DHT22;38941;53.254;6.600;2023-09-07T04:41:17;17.60;99.90
51837;DHT22;38941;53.254;6.600;2023-09-07T04:43:18;17.50;99.90
51837;DHT22;38941;53.254;6.600;2023-09-07T04:45:18;17.50;99.90
51837;DHT22;38941;53.254;6.600;2023-09-07T04:47:19;17.50;99.90
51837;DHT22;38941;53.254;6.600;2023-09-07T04:49:23;17.50;99.90
51837;DHT22;38941;53.254;6.600;2023-09-07T04:51:24;17.40;99.90
51837;DHT22;38941;53.254;6.600;2023-09-07T04:53:28;17.40;99.90
51837;DHT22;38941;53.254;6.600;2023-09-07T04:55:29;17.40;99.90
51837;DHT22;38941;53.254;6.600;2023-09-07T04:57:30;17.30;99.90
51837;DHT22;38941;53.254;6.600;2023-09-07T04:59:31;17.30;99.90
51837;DHT22;38941;53.254;6.600;2023-09-07T05:01:32;17.30;99.90
51837;DHT22;38941;53.254;6.600;2023-09-07T05:03:33;17.30;99.90
51837;DHT22;38941;53.254;6.600;2023-09-07T05:05:34;17.30;99.90
51837;DHT22;38941;53.254;6.600;2023-09-07T05:07:34;17.30;99.90
51837;DHT22;38941;53.254;6.600;2023-09-07T05:09:35;17.30;99.90
51837;DHT22;38941;53.254;6.600;2023-09-07T05:11:36;17.30;99.90
51837;DHT22;38941;53.254;6.600;2023-09-07T05:13:37;17.30;99.90
51837;DHT22;38941;53.254;6.600;2023-09-07T05:15:49;17.20;99.90
51837;DHT22;38941;53.254;6.600;2023-09-07T05:17:50;17.30;99.90
51837;DHT22;38941;53.254;6.600;2023-09-07T05:19:51;17.20;99.90
51837;DHT22;38941;53.254;6.600;2023-09-07T05:21:52;17.20;99.90
51837;DHT22;38941;53.254;6.600;2023-09-07T05:23:52;17.20;99.90
51837;DHT22;38941;53.254;6.600;2023-09-07T05:25:54;17.20;99.90
51837;DHT22;38941;53.254;6.600;2023-09-07T05:27:55;17.20;99.90
51837;DHT22;38941;53.254;6.600;2023-09-07T05:29:56;17.20;99.90
51837;DHT22;38941;53.254;6.600;2023-09-07T05:31:56;17.20;99.90
51837;DHT22;38941;53.254;6.600;2023-09-07T05:33:57;17.30;99.90
51837;DHT22;38941;53.254;6.600;2023-09-07T05:35:58;17.30;99.90
51837;DHT22;38941;53.254;6.600;2023-09-07T05:37:59;17.40;99.90
51837;DHT22;38941;53.254;6.600;2023-09-07T05:39:59;17.40;99.90
51837;DHT22;38941;53.254;6.600;2023-09-07T05:42:00;17.40;99.90
51837;DHT22;38941;53.254;6.600;2023-09-07T05:44:01;17.50;99.90
51837;DHT22;38941;53.254;6.600;2023-09-07T05:46:03;17.50;99.90
51837;DHT22;38941;53.254;6.600;2023-09-07T05:48:04;17.60;99.90
51837;DHT22;38941;53.254;6.600;2023-09-07T05:50:05;17.60;99.90
51837;DHT22;38941;53.254;6.600;2023-09-07T05:52:07;17.70;99.90
51837;DHT22;38941;53.254;6.600;2023-09-07T05:54:08;17.70;99.90
51837;DHT22;38941;53.254;6.600;2023-09-07T05:56:09;17.80;99.90
51837;DHT22;38941;53.254;6.600;2023-09-07T05:58:09;17.80;99.90
51837;DHT22;38941;53.254;6.600;2023-09-07T06:00:10;17.80;99.90
51837;DHT22;38941;53.254;6.600;2023-09-07T06:02:11;17.90;99.90
51837;DHT22;38941;53.254;6.600;2023-09-07T06:04:12;17.90;99.90
51837;DHT22;38941;53.254;6.600;2023-09-07T06:06:13;17.90;99.90
51837;DHT22;38941;53.254;6.600;2023-09-07T06:08:14;18.00;99.90
51837;DHT22;38941;53.254;6.600;2023-09-07T06:10:15;17.90;99.90
51837;DHT22;38941;53.254;6.600;2023-09-07T06:12:15;18.00;99.90
51837;DHT22;38941;53.254;6.600;2023-09-07T06:14:16;18.10;99.90
51837;DHT22;38941;53.254;6.600;2023-09-07T06:16:17;18.10;99.90
51837;DHT22;38941;53.254;6.600;2023-09-07T06:18:18;18.10;99.90
51837;DHT22;38941;53.254;6.600;2023-09-07T06:20:19;18.10;99.90
51837;DHT22;38941;53.254;6.600;2023-09-07T06:22:20;18.20;99.90
51837;DHT22;38941;53.254;6.600;2023-09-07T06:24:23;18.30;99.90
51837;DHT22;38941;53.254;6.600;2023-09-07T06:26:24;18.30;99.90
51837;DHT22;38941;53.254;6.600;2023-09-07T06:28:25;18.30;99.90
51837;DHT22;38941;53.254;6.600;2023-09-07T06:30:27;18.40;99.90
51837;DHT22;38941;53.254;6.600;2023-09-07T06:32:28;18.50;99.90
51837;DHT22;38941;53.254;6.600;2023-09-07T06:34:28;18.50;99.90
51837;DHT22;38941;53.254;6.600;2023-09-07T06:36:30;18.30;99.90
51837;DHT22;38941;53.254;6.600;2023-09-07T06:38:31;18.70;99.90
51837;DHT22;38941;53.254;6.600;2023-09-07T06:40:32;18.80;99.90
51837;DHT22;38941;53.254;6.600;2023-09-07T06:42:32;18.80;99.90
51837;DHT22;38941;53.254;6.600;2023-09-07T06:44:34;18.90;99.90
51837;DHT22;38941;53.254;6.600;2023-09-07T06:46:34;19.00;99.90
51837;DHT22;38941;53.254;6.600;2023-09-07T06:48:35;19.10;99.90
51837;DHT22;38941;53.254;6.600;2023-09-07T06:50:37;19.20;99.90
51837;DHT22;38941;53.254;6.600;2023-09-07T06:52:38;19.30;99.90
51837;DHT22;38941;53.254;6.600;2023-09-07T06:54:39;19.40;99.90
51837;DHT22;38941;53.254;6.600;2023-09-07T06:56:39;19.60;99.90
51837;DHT22;38941;53.254;6.600;2023-09-07T06:58:40;19.70;99.90
51837;DHT22;38941;53.254;6.600;2023-09-07T07:00:41;19.90;99.90
51837;DHT22;38941;53.254;6.600;2023-09-07T07:02:41;20.00;99.90
51837;DHT22;38941;53.254;6.600;2023-09-07T07:04:43;20.20;99.90
51837;DHT22;38941;53.254;6.600;2023-09-07T07:06:46;20.40;99.90
51837;DHT22;38941;53.254;6.600;2023-09-07T07:08:46;20.50;99.90
51837;DHT22;38941;53.254;6.600;2023-09-07T07:10:47;20.70;99.90
51837;DHT22;38941;53.254;6.600;2023-09-07T07:12:48;20.80;99.90
51837;DHT22;38941;53.254;6.600;2023-09-07T07:14:48;20.90;99.90
51837;DHT22;38941;53.254;6.600;2023-09-07T07:16:49;21.10;99.90
51837;DHT22;38941;53.254;6.600;2023-09-07T07:18:50;21.30;99.90
51837;DHT22;38941;53.254;6.600;2023-09-07T07:20:50;21.40;99.90
51837;DHT22;38941;53.254;6.600;2023-09-07T07:22:51;21.50;99.90
51837;DHT22;38941;53.254;6.600;2023-09-07T07:24:52;21.70;99.90
51837;DHT22;38941;53.254;6.600;2023-09-07T07:26:52;21.90;99.90
51837;DHT22;38941;53.254;6.600;2023-09-07T07:28:53;22.00;99.90
51837;DHT22;38941;53.254;6.600;2023-09-07T07:30:54;22.10;99.90
51837;DHT22;38941;53.254;6.600;2023-09-07T07:32:55;22.20;99.90
51837;DHT22;38941;53.254;6.600;2023-09-07T07:34:56;22.40;99.90
51837;DHT22;38941;53.254;6.600;2023-09-07T07:36:57;22.50;99.90
51837;DHT22;38941;53.254;6.600;2023-09-07T07:38:58;22.60;99.90
51837;DHT22;38941;53.254;6.600;2023-09-07T07:40:59;22.70;99.90
51837;DHT22;38941;53.254;6.600;2023-09-07T07:42:59;22.80;99.90
51837;DHT22;38941;53.254;6.600;2023-09-07T07:45:00;22.90;99.90
51837;DHT22;38941;53.254;6.600;2023-09-07T07:47:01;23.10;99.90
51837;DHT22;38941;53.254;6.600;2023-09-07T07:49:01;23.20;99.90
51837;DHT22;38941;53.254;6.600;2023-09-07T07:51:05;23.40;99.90
51837;DHT22;38941;53.254;6.600;2023-09-07T07:53:06;23.50;99.90
51837;DHT22;38941;53.254;6.600;2023-09-07T07:55:08;23.60;99.90
51837;DHT22;38941;53.254;6.600;2023-09-07T07:57:08;23.80;99.90
51837;DHT22;38941;53.254;6.600;2023-09-07T07:59:09;23.90;99.90
51837;DHT22;38941;53.254;6.600;2023-09-07T08:01:18;24.00;99.90
51837;DHT22;38941;53.254;6.600;2023-09-07T08:03:19;23.50;99.90
51837;DHT22;38941;53.254;6.600;2023-09-07T08:05:20;24.30;99.90
51837;DHT22;38941;53.254;6.600;2023-09-07T08:07:23;24.40;99.90
51837;DHT22;38941;53.254;6.600;2023-09-07T08:09:24;24.50;99.90
51837;DHT22;38941;53.254;6.600;2023-09-07T08:11:25;24.70;99.90
51837;DHT22;38941;53.254;6.600;2023-09-07T08:13:27;24.90;99.90
51837;DHT22;38941;53.254;6.600;2023-09-07T08:15:29;25.10;99.90
51837;DHT22;38941;53.254;6.600;2023-09-07T08:17:30;25.30;99.90
51837;DHT22;38941;53.254;6.600;2023-09-07T08:19:31;25.50;99.90
51837;DHT22;38941;53.254;6.600;2023-09-07T08:21:32;25.60;99.90
51837;DHT22;38941;53.254;6.600;2023-09-07T08:23:34;25.70;99.90
51837;DHT22;38941;53.254;6.600;2023-09-07T08:25:34;25.70;99.90
51837;DHT22;38941;53.254;6.600;2023-09-07T08:27:35;25.90;99.90
51837;DHT22;38941;53.254;6.600;2023-09-07T08:29:36;26.10;99.90
51837;DHT22;38941;53.254;6.600;2023-09-07T08:31:38;26.10;99.90
51837;DHT22;38941;53.254;6.600;2023-09-07T08:33:41;26.20;99.90
51837;DHT22;38941;53.254;6.600;2023-09-07T08:35:42;26.70;99.90
51837;DHT22;38941;53.254;6.600;2023-09-07T08:37:44;26.50;99.90
51837;DHT22;38941;53.254;6.600;2023-09-07T08:39:45;26.60;99.90
51837;DHT22;38941;53.254;6.600;2023-09-07T08:41:45;26.70;99.90
51837;DHT22;38941;53.254;6.600;2023-09-07T08:43:48;26.70;99.90
51837;DHT22;38941;53.254;6.600;2023-09-07T08:46:11;26.80;99.90
51837;DHT22;38941;53.254;6.600;2023-09-07T08:48:15;27.00;99.90
51837;DHT22;38941;53.254;6.600;2023-09-07T08:50:18;27.10;99.90
51837;DHT22;38941;53.254;6.600;2023-09-07T08:52:23;27.30;99.90
51837;DHT22;38941;53.254;6.600;2023-09-07T08:54:23;27.70;99.90
51837;DHT22;38941;53.254;6.600;2023-09-07T08:56:25;28.10;99.90
51837;DHT22;38941;53.254;6.600;2023-09-07T08:58:26;28.40;99.90
51837;DHT22;38941;53.254;6.600;2023-09-07T09:00:27;28.60;99.90
51837;DHT22;38941;53.254;6.600;2023-09-07T09:02:28;29.00;99.90
51837;DHT22;38941;53.254;6.600;2023-09-07T09:04:29;29.40;99.90
51837;DHT22;38941;53.254;6.600;2023-09-07T09:06:30;30.00;99.90
51837;DHT22;38941;53.254;6.600;2023-09-07T09:08:48;30.40;99.90
51837;DHT22;38941;53.254;6.600;2023-09-07T09:10:58;30.90;99.90
51837;DHT22;38941;53.254;6.600;2023-09-07T09:12:59;31.20;99.80
51837;DHT22;38941;53.254;6.600;2023-09-07T09:15:00;31.30;98.80
51837;DHT22;38941;53.254;6.600;2023-09-07T09:17:05;31.50;98.20
51837;DHT22;38941;53.254;6.600;2023-09-07T09:19:06;31.60;98.00
51837;DHT22;38941;53.254;6.600;2023-09-07T09:21:07;31.60;97.90
51837;DHT22;38941;53.254;6.600;2023-09-07T09:23:10;31.90;97.50
51837;DHT22;38941;53.254;6.600;2023-09-07T09:25:13;32.20;96.80
51837;DHT22;38941;53.254;6.600;2023-09-07T09:27:13;32.30;96.30
51837;DHT22;38941;53.254;6.600;2023-09-07T09:29:14;32.50;95.70
51837;DHT22;38941;53.254;6.600;2023-09-07T09:31:16;32.70;95.40
51837;DHT22;38941;53.254;6.600;2023-09-07T09:33:19;32.80;95.00
51837;DHT22;38941;53.254;6.600;2023-09-07T09:35:21;33.10;94.40
51837;DHT22;38941;53.254;6.600;2023-09-07T09:37:23;33.20;94.40
51837;DHT22;38941;53.254;6.600;2023-09-07T09:39:25;33.30;93.90
51837;DHT22;38941;53.254;6.600;2023-09-07T09:41:27;33.40;93.60
51837;DHT22;38941;53.254;6.600;2023-09-07T09:43:31;33.50;93.30
51837;DHT22;38941;53.254;6.600;2023-09-07T09:45:32;33.70;93.20
51837;DHT22;38941;53.254;6.600;2023-09-07T09:47:36;33.70;93.00
51837;DHT22;38941;53.254;6.600;2023-09-07T09:49:40;33.60;92.40
51837;DHT22;38941;53.254;6.600;2023-09-07T09:51:42;33.60;92.70
51837;DHT22;38941;53.254;6.600;2023-09-07T09:53:42;33.70;92.50
51837;DHT22;38941;53.254;6.600;2023-09-07T09:55:44;33.70;92.50
51837;DHT22;38941;53.254;6.600;2023-09-07T09:57:45;33.40;93.10
51837;DHT22;38941;53.254;6.600;2023-09-07T09:59:46;33.30;92.90
51837;DHT22;38941;53.254;6.600;2023-09-07T10:01:47;33.30;92.50
51837;DHT22;38941;53.254;6.600;2023-09-07T10:03:51;33.30;92.30
51837;DHT22;38941;53.254;6.600;2023-09-07T10:05:53;33.20;91.80
51837;DHT22;38941;53.254;6.600;2023-09-07T10:08:00;33.10;92.30
51837;DHT22;38941;53.254;6.600;2023-09-07T10:10:03;33.30;92.40
51837;DHT22;38941;53.254;6.600;2023-09-07T10:12:04;33.40;92.20
51837;DHT22;38941;53.254;6.600;2023-09-07T10:14:08;33.70;92.90
51837;DHT22;38941;53.254;6.600;2023-09-07T10:16:09;33.90;93.10
51837;DHT22;38941;53.254;6.600;2023-09-07T10:18:15;34.10;91.80
51837;DHT22;38941;53.254;6.600;2023-09-07T10:20:17;34.10;90.50
51837;DHT22;38941;53.254;6.600;2023-09-07T10:22:24;34.10;91.30
51837;DHT22;38941;53.254;6.600;2023-09-07T10:24:30;34.30;90.90
51837;DHT22;38941;53.254;6.600;2023-09-07T10:26:33;33.70;90.40
51837;DHT22;38941;53.254;6.600;2023-09-07T10:28:34;34.30;90.60
51837;DHT22;38941;53.254;6.600;2023-09-07T10:30:35;34.30;90.10
51837;DHT22;38941;53.254;6.600;2023-09-07T10:32:39;34.50;88.60
51837;DHT22;38941;53.254;6.600;2023-09-07T10:34:43;34.40;85.50
51837;DHT22;38941;53.254;6.600;2023-09-07T10:36:44;34.50;88.10
51837;DHT22;38941;53.254;6.600;2023-09-07T10:38:46;34.40;86.60
51837;DHT22;38941;53.254;6.600;2023-09-07T10:40:47;34.50;85.80
51837;DHT22;38941;53.254;6.600;2023-09-07T10:42:48;34.70;85.00
51837;DHT22;38941;53.254;6.600;2023-09-07T10:44:49;34.70;84.20
51837;DHT22;38941;53.254;6.600;2023-09-07T10:46:50;34.60;81.60
51837;DHT22;38941;53.254;6.600;2023-09-07T10:48:52;34.50;82.40
51837;DHT22;38941;53.254;6.600;2023-09-07T10:50:53;34.60;82.80
51837;DHT22;38941;53.254;6.600;2023-09-07T10:52:54;34.80;83.20
51837;DHT22;38941;53.254;6.600;2023-09-07T10:54:57;34.90;81.20
51837;DHT22;38941;53.254;6.600;2023-09-07T10:57:08;35.00;80.10
51837;DHT22;38941;53.254;6.600;2023-09-07T10:59:09;35.00;77.40
51837;DHT22;38941;53.254;6.600;2023-09-07T11:01:10;35.20;79.00
51837;DHT22;38941;53.254;6.600;2023-09-07T11:03:11;35.20;77.20
51837;DHT22;38941;53.254;6.600;2023-09-07T11:05:12;35.00;76.70
51837;DHT22;38941;53.254;6.600;2023-09-07T11:07:13;35.20;78.20
51837;DHT22;38941;53.254;6.600;2023-09-07T11:09:14;35.40;79.60
51837;DHT22;38941;53.254;6.600;2023-09-07T11:11:17;35.20;75.20
51837;DHT22;38941;53.254;6.600;2023-09-07T11:13:18;35.10;75.70
51837;DHT22;38941;53.254;6.600;2023-09-07T11:15:19;35.10;75.70
51837;DHT22;38941;53.254;6.600;2023-09-07T11:17:28;35.20;73.80
51837;DHT22;38941;53.254;6.600;2023-09-07T11:19:35;35.40;75.10
51837;DHT22;38941;53.254;6.600;2023-09-07T11:21:36;35.60;73.70
51837;DHT22;38941;53.254;6.600;2023-09-07T11:23:37;35.70;72.10
51837;DHT22;38941;53.254;6.600;2023-09-07T11:25:41;35.60;71.50
51837;DHT22;38941;53.254;6.600;2023-09-07T11:27:42;35.90;71.20
51837;DHT22;38941;53.254;6.600;2023-09-07T11:29:53;35.80;69.60
51837;DHT22;38941;53.254;6.600;2023-09-07T11:31:54;35.70;67.50
51837;DHT22;38941;53.254;6.600;2023-09-07T11:33:55;35.80;69.30
51837;DHT22;38941;53.254;6.600;2023-09-07T11:35:57;36.00;69.60
51837;DHT22;38941;53.254;6.600;2023-09-07T11:38:03;36.20;69.20
51837;DHT22;38941;53.254;6.600;2023-09-07T11:40:05;36.40;67.80
51837;DHT22;38941;53.254;6.600;2023-09-07T11:42:12;36.40;67.30
51837;DHT22;38941;53.254;6.600;2023-09-07T11:44:13;36.40;66.50
51837;DHT22;38941;53.254;6.600;2023-09-07T11:46:14;36.50;67.20
51837;DHT22;38941;53.254;6.600;2023-09-07T11:48:15;36.50;66.20
51837;DHT22;38941;53.254;6.600;2023-09-07T11:50:19;36.70;66.50
51837;DHT22;38941;53.254;6.600;2023-09-07T11:52:23;36.60;65.30
51837;DHT22;38941;53.254;6.600;2023-09-07T11:54:24;37.30;66.10
51837;DHT22;38941;53.254;6.600;2023-09-07T11:56:25;36.70;65.30
51837;DHT22;38941;53.254;6.600;2023-09-07T11:58:26;36.80;65.40
51837;DHT22;38941;53.254;6.600;2023-09-07T12:00:27;36.80;63.50
51837;DHT22;38941;53.254;6.600;2023-09-07T12:02:28;36.80;63.00
51837;DHT22;38941;53.254;6.600;2023-09-07T12:04:29;37.00;64.40
51837;DHT22;38941;53.254;6.600;2023-09-07T12:06:30;37.20;63.70
51837;DHT22;38941;53.254;6.600;2023-09-07T12:08:31;37.50;64.00
51837;DHT22;38941;53.254;6.600;2023-09-07T12:10:31;37.40;63.50
51837;DHT22;38941;53.254;6.600;2023-09-07T12:12:32;37.30;62.50
51837;DHT22;38941;53.254;6.600;2023-09-07T12:14:33;37.00;63.00
51837;DHT22;38941;53.254;6.600;2023-09-07T12:16:35;36.80;60.50
51837;DHT22;38941;53.254;6.600;2023-09-07T12:18:36;36.70;61.40
51837;DHT22;38941;53.254;6.600;2023-09-07T12:20:37;37.00;61.20
51837;DHT22;38941;53.254;6.600;2023-09-07T12:22:38;36.80;60.50
51837;DHT22;38941;53.254;6.600;2023-09-07T12:24:39;37.10;60.00
51837;DHT22;38941;53.254;6.600;2023-09-07T12:26:41;37.10;58.50
51837;DHT22;38941;53.254;6.600;2023-09-07T12:28:41;36.90;58.50
51837;DHT22;38941;53.254;6.600;2023-09-07T12:30:43;36.70;58.00
51837;DHT22;38941;53.254;6.600;2023-09-07T12:32:46;36.60;57.50
51837;DHT22;38941;53.254;6.600;2023-09-07T12:34:47;36.80;57.00
51837;DHT22;38941;53.254;6.600;2023-09-07T12:36:48;37.00;58.00
51837;DHT22;38941;53.254;6.600;2023-09-07T12:38:50;37.20;57.20
51837;DHT22;38941;53.254;6.600;2023-09-07T12:40:52;37.10;57.60
51837;DHT22;38941;53.254;6.600;2023-09-07T12:42:54;37.20;57.10
51837;DHT22;38941;53.254;6.600;2023-09-07T12:44:56;37.10;57.60
51837;DHT22;38941;53.254;6.600;2023-09-07T12:46:58;37.10;56.90
51837;DHT22;38941;53.254;6.600;2023-09-07T12:48:59;37.50;58.00